Latest Weather Observations for Truscott

IDW60801

Issued at 4:05 pm WST Monday 22 September 2014 (issued every 30 minutes, with the page automatically refreshed every 10 minutes)

About weather observations | Map of weather stations | Latest weather observations for WA | Other Formats
Station Details ID: 001020 Name: TRUSCOTT Lat: -14.09 Lon: 126.39 Height: 51.0 m
Data from the previous 72 hours. | See also: Recent months at Truscott
Date/Time
WST
Temp
°C
App
Temp
°C
Dew
Point
Rel
Hum
%
Delta-T
°C
Wind Press
QNH
hPa
Press
MSL
hPa
Rain
since 9 am
mm
Dir
 
Spd
km/h
Gust
km/h
Spd
kts
Gust
kts
22/04:00pm 29.0 28.6 19.0 54 6.5 NW 19 17 10 9 1010.0 - 0.0
22/03:30pm 30.0 30.0 19.0 51 7.2 NNW 17 15 9 8 1011.0 - 0.0
22/03:00pm 30.1 29.1 17.5 46 8.0 NW 19 - 10 - 1011.0 1010.6 0.0
22/02:30pm 31.0 29.0 15.0 38 9.8 NNW 19 - 10 - 1011.0 - 0.0
22/02:00pm 30.0 28.4 16.0 42 8.7 NNW 19 - 10 - 1011.0 - 0.0
22/01:30pm 29.0 29.1 20.0 58 5.9 N 19 - 10 - 1012.0 - 0.0
22/01:00pm 31.0 31.1 20.0 52 7.3 N 19 - 10 - 1012.0 - 0.0
22/12:30pm 30.0 30.6 21.0 58 6.0 NNW 19 - 10 - 1012.0 - 0.0
22/12:00pm 30.7 31.1 19.1 50 7.6 NW 15 - 8 - 1013.0 1012.5 0.0
22/11:30am 30.0 30.9 20.0 55 6.6 N 15 - 8 - 1013.0 - 0.0
22/11:00am 31.0 32.6 20.0 52 7.3 N 11 - 6 - 1014.0 - 0.0
22/10:30am 30.0 30.9 20.0 55 6.6 NNW 15 - 8 - 1014.0 - 0.0
22/10:00am 30.0 31.2 20.0 55 6.6 N 13 22 7 12 1014.0 - 0.0
22/09:30am 31.0 29.5 13.0 33 10.7 NW 13 - 7 - 1015.0 - 0.0
22/09:00am 30.8 31.2 15.2 38 9.6 S 7 - 4 - 1014.0 1014.4 0.0
22/08:30am 29.0 31.4 20.0 58 5.9 E 7 - 4 - 1015.0 - 0.0
22/08:00am 28.0 30.5 21.0 65 4.7 ESE 9 - 5 - 1015.0 - 0.0
22/07:30am 27.0 29.8 23.0 79 2.7 SW 13 - 7 - 1014.0 - 0.0
22/07:00am 26.0 29.2 23.0 83 2.0 SW 11 - 6 - 1014.0 - 0.0
22/06:30am 24.0 28.1 24.0 100 0.0 SW 9 - 5 - 1014.0 - 0.0
22/06:00am 22.2 26.7 22.2 100 0.0 S 2 7 1 4 1013.0 1013.3 0.0
22/05:30am 21.0 25.2 21.0 100 0.0 CALM 0 - 0 - 1013.0 - 0.0
22/05:10am 21.0 25.2 21.0 100 0.0 CALM 0 - 0 - 1013.0 - 0.0
22/05:00am 22.0 26.2 21.0 94 0.7 CALM 0 - 0 - 1013.0 - 0.0
22/04:46am 22.0 26.2 21.0 94 0.7 CALM 0 - 0 - 1012.0 - 0.0
22/04:41am 22.0 26.2 21.0 94 0.7 CALM 0 - 0 - 1012.0 - 0.0
22/04:30am 22.0 26.7 22.0 100 0.0 CALM 0 - 0 - 1012.0 - 0.0
22/04:00am 23.0 27.0 22.0 94 0.7 WSW 4 - 2 - 1012.0 - 0.0
22/03:51am 23.0 27.0 22.0 94 0.7 W 4 - 2 - 1012.0 - 0.0
22/03:30am 24.0 28.5 24.0 100 0.0 WSW 7 - 4 - 1012.0 - 0.0
22/03:00am 24.1 28.4 23.6 97 0.3 W 7 - 4 - 1011.0 1011.1 0.0
22/02:30am 24.0 27.6 23.0 94 0.7 WSW 9 - 5 - 1011.0 - 0.0
22/02:00am 24.0 27.2 23.0 94 0.7 W 11 - 6 - 1012.0 - 0.0
22/01:30am 24.0 26.6 22.0 88 1.3 W 11 - 6 - 1012.0 - 0.0
22/01:00am 23.0 26.4 22.0 94 0.7 W 7 - 4 - 1012.0 - 0.0
22/12:30am 22.0 25.7 20.0 88 1.3 CALM 0 - 0 - 1012.0 - 0.0
22/12:00am 23.3 26.6 21.4 89 1.3 W 6 7 3 4 1012.0 1012.4 0.0
 
Date/Time
WST
Temp
°C
App
Temp
°C
Dew
Point
Rel
Hum
%
Delta-T
°C
Wind Press
QNH
hPa
Press
MSL
hPa
Rain
since 9 am
mm
Dir
 
Spd
km/h
Gust
km/h
Spd
kts
Gust
kts
21/11:30pm 24.0 27.6 22.0 88 1.3 W 6 - 3 - 1013.0 - 0.0
21/11:00pm 23.0 26.1 21.0 88 1.3 W 6 - 3 - 1013.0 - 0.0
21/10:30pm 23.0 26.3 20.0 83 1.9 W 2 - 1 - 1014.0 - 0.0
21/10:00pm 23.0 25.1 19.0 78 2.5 W 6 7 3 4 1014.0 - 0.0
21/09:30pm 25.0 27.4 20.0 74 3.2 WSW 7 - 4 - 1014.0 - 0.0
21/09:00pm 23.9 25.1 16.9 65 4.3 WSW 6 - 3 - 1014.0 1013.5 0.0
21/08:30pm 26.0 27.5 18.0 61 5.1 WSW 7 - 4 - 1013.0 - 0.0
21/08:00pm 26.0 27.5 18.0 61 5.1 WSW 7 - 4 - 1013.0 - 0.0
21/07:30pm 27.0 27.7 18.0 58 5.7 W 11 - 6 - 1013.0 - 0.0
21/07:00pm 27.0 28.2 19.0 61 5.2 W 11 13 6 7 1013.0 - 0.0
21/06:30pm 28.0 28.3 18.0 54 6.4 WNW 13 - 7 - 1012.0 - 0.0
21/06:00pm 28.2 28.5 17.1 51 7.0 WNW 11 - 6 - 1012.0 1012.0 0.0
21/05:30pm 29.0 28.2 16.0 45 8.1 W 15 - 8 - 1012.0 - 0.0
21/05:00pm 30.0 29.5 17.0 45 8.2 WNW 15 - 8 - 1011.0 - 0.0
21/04:30pm 31.0 30.5 16.0 40 9.4 NW 13 - 7 - 1011.0 - 0.0
21/04:00pm 32.0 30.4 14.0 33 10.9 NW 15 - 8 - 1011.0 - 0.0
21/03:30pm 33.0 30.2 10.0 24 13.2 WNW 15 - 8 - 1011.0 - 0.0
21/03:00pm 33.2 30.0 11.1 26 12.9 W 19 - 10 - 1011.0 1010.9 0.0
21/02:30pm 34.0 31.2 10.0 23 13.8 W 15 - 8 - 1011.0 - 0.0
21/02:00pm 34.0 31.2 10.0 23 13.8 W 15 - 8 - 1011.0 - 0.0
21/01:30pm 33.0 29.8 12.0 27 12.4 W 20 - 11 - 1011.0 - 0.0
21/01:00pm 35.0 31.4 10.0 21 14.5 NW 19 - 10 - 1012.0 - 0.0
21/12:30pm 35.0 31.7 8.0 19 15.2 WNW 15 - 8 - 1012.0 - 0.0
21/12:00pm 34.2 31.1 8.8 21 14.4 W 15 - 8 - 1013.0 1012.7 0.0
21/11:30am 34.0 30.9 9.0 21 14.2 WSW 15 - 8 - 1013.0 - 0.0
21/11:00am 34.0 31.6 10.0 23 13.8 W 13 - 7 - 1014.0 - 0.0
21/10:30am 33.0 30.6 10.0 24 13.2 W 13 - 7 - 1014.0 - 0.0
21/10:00am 33.0 30.3 9.0 22 13.6 WSW 13 - 7 - 1015.0 - 0.0
21/09:30am 32.0 30.5 13.0 31 11.4 W 13 - 7 - 1015.0 - 0.0
21/09:00am 31.5 28.9 10.8 28 11.9 W 15 - 8 - 1015.0 1015.1 0.0
21/08:30am 30.0 29.5 16.0 42 8.7 SSW 13 - 7 - 1015.0 - 0.0
21/08:00am 29.0 29.3 18.0 51 7.0 SW 13 - 7 - 1015.0 - 0.0
21/07:30am 28.0 30.0 20.0 61 5.2 WSW 9 - 5 - 1015.0 - 0.0
21/07:00am 26.0 30.5 23.0 83 2.0 W 4 - 2 - 1015.0 - 0.0
21/06:30am 24.0 27.6 22.0 88 1.3 SSW 6 - 3 - 1015.0 - 0.0
21/06:02am 21.0 24.7 20.0 94 0.6 CALM 0 - 0 - 1014.0 - 0.0
21/06:00am 21.2 25.1 20.4 95 0.5 CALM 0 - 0 - 1014.0 1013.9 0.0
21/05:47am 21.0 24.3 20.0 94 0.6 SW 2 - 1 - 1014.0 - 0.0
21/05:44am 21.0 24.0 20.0 94 0.6 SW 4 - 2 - 1014.0 - 0.0
21/05:30am 21.0 24.0 20.0 94 0.6 WSW 4 - 2 - 1013.0 - 0.0
21/05:19am 21.0 24.7 20.0 94 0.6 CALM 0 - 0 - 1013.0 - 0.0
21/05:00am 22.0 25.7 20.0 88 1.3 CALM 0 - 0 - 1013.0 - 0.0
21/04:30am 23.0 26.4 22.0 94 0.7 SSW 7 - 4 - 1013.0 - 0.0
21/04:00am 22.0 24.4 20.0 88 1.3 SSW 7 - 4 - 1013.0 - 0.0
21/03:30am 21.0 24.7 20.0 94 0.6 CALM 0 - 0 - 1012.0 - 0.0
21/03:00am 22.2 25.0 19.7 86 1.6 SW 4 - 2 - 1012.0 1012.2 0.0
21/02:30am 25.0 28.0 22.0 83 2.0 WSW 9 - 5 - 1012.0 - 0.0
21/02:00am 24.0 26.9 21.0 83 2.0 WSW 7 - 4 - 1012.0 - 0.0
21/01:30am 22.0 26.2 21.0 94 0.7 CALM 0 - 0 - 1013.0 - 0.0
21/01:00am 22.0 25.7 20.0 88 1.3 CALM 0 - 0 - 1013.0 - 0.0
21/12:55am 22.0 25.7 20.0 88 1.3 CALM 0 - 0 - 1013.0 - 0.0
21/12:30am 23.0 26.1 21.0 88 1.3 W 6 - 3 - 1013.0 - 0.0
21/12:00am 23.6 26.4 20.9 85 1.8 W 7 - 4 - 1013.0 1013.0 0.0
 
Date/Time
WST
Temp
°C
App
Temp
°C
Dew
Point
Rel
Hum
%
Delta-T
°C
Wind Press
QNH
hPa
Press
MSL
hPa
Rain
since 9 am
mm
Dir
 
Spd
km/h
Gust
km/h
Spd
kts
Gust
kts
20/11:30pm 24.0 26.9 21.0 83 2.0 W 7 - 4 - 1013.0 - 0.0
20/11:00pm 25.0 27.0 20.0 74 3.2 WSW 9 - 5 - 1013.0 - 0.0
20/10:30pm 26.0 26.7 18.0 61 5.1 WSW 11 - 6 - 1013.0 - 0.0
20/10:00pm 26.0 26.3 17.0 57 5.6 SW 11 - 6 - 1014.0 - 0.0
20/09:30pm 26.0 26.3 16.0 54 6.1 WSW 9 - 5 - 1014.0 - 0.0
20/09:00pm 24.7 25.6 16.7 61 4.9 WSW 7 - 4 - 1014.0 1013.7 0.0
20/08:30pm 23.0 23.1 14.0 57 5.3 W 6 - 3 - 1014.0 - 0.0
20/08:01pm 24.0 25.3 14.0 53 5.9 CALM 0 - 0 - 1013.0 - 0.0
20/08:00pm 24.0 25.3 14.0 53 5.9 CALM 0 - 0 - 1013.0 - 0.0
20/07:45pm 25.0 26.3 14.0 50 6.5 CALM 0 - 0 - 1013.0 - 0.0
20/07:30pm 26.0 27.3 14.0 47 7.1 CALM 0 - 0 - 1013.0 - 0.0
20/07:00pm 28.0 27.9 14.0 42 8.4 WSW 7 - 4 - 1013.0 - 0.0
20/06:30pm 28.0 27.6 14.0 42 8.4 SW 9 - 5 - 1012.0 - 0.0
20/06:00pm 28.5 28.7 14.3 41 8.6 WSW 6 - 3 - 1012.0 1011.7 0.0
20/05:30pm 30.0 30.3 15.0 40 9.2 WSW 7 - 4 - 1011.0 - 0.0
20/05:00pm 31.0 29.9 12.0 31 11.2 WNW 9 - 5 - 1011.0 - 0.0
20/04:30pm 32.0 29.8 8.0 22 13.3 NNW 9 - 5 - 1011.0 - 0.0
20/04:00pm 32.0 29.5 8.0 22 13.3 N 11 - 6 - 1010.0 - 0.0
20/03:30pm 33.0 30.6 10.0 24 13.2 N 13 - 7 - 1010.0 - 0.0
20/03:00pm 33.3 30.9 10.0 24 13.4 NW 13 - 7 - 1010.0 1010.1 0.0
20/02:30pm 34.0 32.1 13.0 28 12.7 NNW 15 - 8 - 1010.0 - 0.0
20/02:00pm 33.0 31.2 12.0 27 12.4 NNW 13 - 7 - 1011.0 - 0.0
20/01:30pm 34.0 31.8 12.0 26 13.1 NNW 15 - 8 - 1011.0 - 0.0
20/01:00pm 34.0 30.9 9.0 21 14.2 NW 15 - 8 - 1011.0 - 0.0
20/12:30pm 34.0 31.7 9.0 21 14.2 NNW 11 - 6 - 1012.0 - 0.0
20/12:00pm 34.4 31.9 9.6 22 14.2 NW 13 - 7 - 1012.0 1012.3 0.0
20/11:30am 34.0 30.8 7.0 18 14.9 NW 13 - 7 - 1013.0 - 0.0
20/11:00am 33.0 30.7 9.0 22 13.6 WNW 11 - 6 - 1014.0 - 0.0
20/10:30am 33.0 30.3 9.0 22 13.6 WNW 13 - 7 - 1014.0 - 0.0
20/10:00am 32.0 30.9 13.0 31 11.4 W 11 - 6 - 1014.0 - 0.0
20/09:30am 31.0 30.6 14.0 35 10.3 W 9 - 5 - 1015.0 - 0.0
20/09:00am 30.5 31.1 15.8 41 9.1 WNW 7 - 4 - 1015.0 1015.3 0.0
20/08:30am 29.0 30.1 17.0 48 7.5 W 7 - 4 - 1015.0 - 0.0
20/08:00am 28.0 29.3 17.0 51 6.9 W 6 - 3 - 1015.0 - 0.0
20/07:30am 28.0 29.7 18.0 54 6.4 NE 6 - 3 - 1015.0 - 0.0
20/07:00am 27.0 29.4 18.0 58 5.7 E 2 - 1 - 1015.0 - 0.0
20/06:30am 23.0 25.4 17.0 69 3.7 CALM 0 - 0 - 1015.0 - 0.0
20/06:00am 20.8 21.8 15.4 71 3.2 E 4 - 2 - 1014.0 1013.9 0.0
20/05:30am 20.0 21.6 15.0 73 2.9 CALM 0 - 0 - 1014.0 - 0.0
20/05:00am 21.0 20.9 15.0 68 3.5 NNE 9 - 5 - 1013.0 - 0.0
20/04:30am 20.0 21.3 14.0 68 3.5 CALM 0 - 0 - 1013.0 - 0.0
20/04:00am 21.0 22.3 14.0 64 4.1 CALM 0 - 0 - 1013.0 - 0.0
20/03:30am 24.0 23.6 14.0 53 5.9 SW 9 - 5 - 1012.0 - 0.0
20/03:00am 24.7 24.1 14.5 53 6.1 SW 11 - 6 - 1012.0 1011.9 0.0
20/02:30am 25.0 24.5 15.0 53 6.0 SW 11 - 6 - 1012.0 - 0.0
20/02:00am 25.0 25.3 16.0 57 5.5 SSW 9 - 5 - 1012.0 - 0.0
20/01:30am 24.0 23.9 17.0 65 4.3 SSW 13 - 7 - 1012.0 - 0.0
20/01:00am 24.0 25.1 18.0 69 3.8 SW 9 - 5 - 1013.0 - 0.0
20/12:30am 25.0 26.5 18.0 65 4.4 SW 7 - 4 - 1013.0 - 0.0
20/12:00am 24.7 25.7 17.7 65 4.4 SW 9 - 5 - 1013.0 1012.8 0.0
 
Date/Time
WST
Temp
°C
App
Temp
°C
Dew
Point
Rel
Hum
%
Delta-T
°C
Wind Press
QNH
hPa
Press
MSL
hPa
Rain
since 9 am
mm
Dir
 
Spd
km/h
Gust
km/h
Spd
kts
Gust
kts
19/11:30pm 26.0 26.7 17.0 57 5.6 WSW 9 - 5 - 1013.0 - 0.0
19/11:00pm 26.0 26.7 18.0 61 5.1 SW 11 - 6 - 1013.0 - 0.0
19/10:30pm 26.0 27.2 19.0 65 4.5 WSW 11 - 6 - 1014.0 - 0.0
19/10:00pm 26.0 27.2 19.0 65 4.5 SW 11 - 6 - 1014.0 - 0.0
19/09:30pm 26.0 27.2 20.0 69 3.9 SW 13 - 7 - 1014.0 - 0.0
19/09:00pm 26.3 27.6 20.2 69 4.0 WSW 13 - 7 - 1014.0 1014.1 0.0
19/08:30pm 26.0 27.6 20.0 69 3.9 SW 11 - 6 - 1014.0 - 0.0
19/08:00pm 26.0 28.5 21.0 74 3.3 WSW 9 - 5 - 1014.0 - 0.0
19/07:30pm 27.0 29.0 20.0 65 4.6 SW 9 - 5 - 1014.0 - 0.0
19/07:00pm 27.0 28.5 19.0 61 5.1 SW 9 - 5 - 1013.0 - 0.0
19/06:30pm 28.0 29.9 19.0 58 5.8 SW 7 - 4 - 1013.0 - 0.0
19/06:00pm 28.3 30.2 19.0 57 6.0 WSW 7 - 4 - 1012.0 1012.3 0.0
19/05:30pm 29.0 30.5 18.0 51 7.0 W 7 - 4 - 1012.0 - 0.0
19/05:00pm 30.0 30.7 16.0 42 8.7 WNW 7 - 4 - 1012.0 - 0.0
19/04:30pm 31.0 31.7 17.0 43 8.9 NW 9 - 5 - 1012.0 - 0.0

Other Formats:

Comma delimited format used in spreadsheet applications
http://www.bom.gov.au/fwo/IDW60801/IDW60801.95101.axf

JavaScript Object Notation format (JSON) in row-major order
http://www.bom.gov.au/fwo/IDW60801/IDW60801.95101.json